Time;durP1;ratioP1;P1;durP2;ratioP2;P2;SDS_P1;SDS_P2;PMS_P1;PMS_P2;Temp;Humidity;BMP_temperature;BMP_pressure;BME280_temperature;BME280_humidity;BME280_pressure;Samples;Min_cycle;Max_cycle;Signal;HPM_P1;HPM_P2
2023/04/30 00:02:00;;;;;;;0.60;0.60;;;;;;;14.11;100.00;99150.16;5051603;28;20250;-59
2023/04/30 00:04:27;;;;;;;0.50;0.50;;;;;;;14.24;99.71;99146.09;5050842;28;20231;-59
2023/04/30 00:06:54;;;;;;;0.50;0.50;;;;;;;14.36;98.61;99154.97;5050324;28;20220;-59
2023/04/30 00:09:21;;;;;;;0.60;0.60;;;;;;;14.46;97.52;99149.31;5048203;28;20233;-59
2023/04/30 00:11:47;;;;;;;0.50;0.50;;;;;;;14.51;97.59;99146.47;5044455;28;20205;-59
2023/04/30 00:14:14;;;;;;;0.50;0.50;;;;;;;14.59;96.56;99142.63;5043732;28;20270;-59
2023/04/30 00:16:41;;;;;;;0.70;0.70;;;;;;;14.64;96.26;99150.13;5043197;28;20212;-59
2023/04/30 00:19:09;;;;;;;0.43;0.43;;;;;;;14.68;96.33;99156.78;5043375;28;20199;-59
2023/04/30 00:21:36;;;;;;;0.50;0.50;;;;;;;14.67;96.42;99150.78;5036536;28;20199;-59
2023/04/30 00:24:03;;;;;;;0.50;0.50;;;;;;;14.71;96.83;99147.16;5043783;28;20204;-59
2023/04/30 00:26:29;;;;;;;0.57;0.57;;;;;;;14.78;97.02;99147.69;5038373;28;20203;-59
2023/04/30 00:28:56;;;;;;;0.50;0.50;;;;;;;14.80;97.77;99150.19;5043383;28;20207;-59
2023/04/30 00:31:23;;;;;;;0.60;0.60;;;;;;;14.87;97.33;99151.53;5050634;28;20200;-59
2023/04/30 00:33:50;;;;;;;0.50;0.50;;;;;;;14.90;96.95;99156.53;5051512;28;20285;-59
2023/04/30 00:36:18;;;;;;;0.60;0.60;;;;;;;14.93;97.07;99146.03;5049596;28;20296;-59
2023/04/30 00:38:45;;;;;;;0.50;0.50;;;;;;;14.95;96.83;99146.81;5051504;28;20237;-59
2023/04/30 00:41:12;;;;;;;0.50;0.50;;;;;;;14.97;96.59;99157.88;5049792;28;20258;-59
2023/04/30 00:43:39;;;;;;;0.50;0.50;;;;;;;14.99;96.23;99156.88;5050205;28;20620;-59
2023/04/30 00:46:05;;;;;;;0.60;0.60;;;;;;;15.03;95.76;99150.66;5044892;28;20204;-59
2023/04/30 00:48:32;;;;;;;0.40;0.40;;;;;;;15.04;95.59;99143.75;5048900;28;20249;-59
2023/04/30 00:50:59;;;;;;;0.50;0.50;;;;;;;15.01;95.58;99143.91;5050675;28;20252;-59
2023/04/30 00:53:27;;;;;;;0.70;0.70;;;;;;;14.98;95.28;99141.50;5046551;28;20211;-59
2023/04/30 00:55:55;;;;;;;0.60;0.60;;;;;;;14.92;95.14;99128.91;5049185;28;20676;-59
2023/04/30 00:58:22;;;;;;;0.50;0.50;;;;;;;14.99;94.68;99132.84;5049923;28;20199;-59
2023/04/30 01:00:50;;;;;;;0.50;0.50;;;;;;;15.00;95.89;99134.50;5050095;28;20202;-59
2023/04/30 01:03:17;;;;;;;0.50;0.50;;;;;;;15.00;96.46;99134.50;5045990;28;20222;-59
2023/04/30 01:05:44;;;;;;;0.40;0.40;;;;;;;15.02;95.83;99132.69;5046649;28;20209;-59
2023/04/30 01:08:11;;;;;;;0.83;0.83;;;;;;;15.04;96.24;99138.59;5046037;28;20213;-59
2023/04/30 01:10:44;;;;;;;0.50;0.50;;;;;;;15.05;95.87;99137.69;5047379;28;20197;-59
2023/04/30 01:13:18;;;;;;;0.47;0.47;;;;;;;15.04;96.09;99143.75;5045442;28;20279;-59
2023/04/30 01:15:53;;;;;;;0.60;0.60;;;;;;;15.04;96.07;99133.41;5044256;28;20282;-59
2023/04/30 01:18:25;;;;;;;0.83;0.83;;;;;;;15.01;96.06;99128.41;5044050;28;20200;-59
2023/04/30 01:20:56;;;;;;;0.40;0.40;;;;;;;15.07;96.24;99138.41;5049454;28;20704;-60
2023/04/30 01:23:35;;;;;;;0.50;0.50;;;;;;;15.02;96.06;99130.94;5045877;28;20224;-59
2023/04/30 01:26:13;;;;;;;0.40;0.40;;;;;;;14.97;96.46;99121.75;5040762;28;20250;-59
2023/04/30 01:28:44;;;;;;;0.60;0.60;;;;;;;15.05;96.89;99135.94;5048539;28;20258;-59
2023/04/30 01:31:13;;;;;;;0.50;0.50;;;;;;;15.04;97.13;99136.00;5042578;28;20214;-59
2023/04/30 01:33:40;;;;;;;0.53;0.53;;;;;;;15.07;98.18;99138.41;5046349;28;20740;-59
2023/04/30 01:36:28;;;;;;;0.60;0.60;;;;;;;15.04;98.57;99129.09;5048967;28;20207;-59
2023/04/30 01:39:12;;;;;;;0.50;0.50;;;;;;;15.09;100.00;99131.41;5049565;28;20192;-59
2023/04/30 01:41:43;;;;;;;0.60;0.60;;;;;;;15.06;99.86;99121.25;5049478;28;20203;-59
2023/04/30 01:44:27;;;;;;;0.60;0.60;;;;;;;15.06;99.74;99129.00;5049878;28;20204;-59
2023/04/30 01:47:01;;;;;;;1.07;0.73;;;;;;;15.05;99.46;99140.25;5052951;28;20254;-59
2023/04/30 01:49:40;;;;;;;0.50;0.50;;;;;;;14.94;99.74;99129.66;5052964;28;20568;-59
2023/04/30 01:52:17;;;;;;;0.50;0.50;;;;;;;14.92;100.00;99128.91;5052200;28;20348;-59
2023/04/30 01:54:51;;;;;;;0.43;0.43;;;;;;;14.93;100.00;99120.22;5051081;28;20577;-59
2023/04/30 01:57:25;;;;;;;0.47;0.47;;;;;;;14.92;99.92;99122.00;5052094;28;20264;-59
2023/04/30 01:59:53;;;;;;;0.50;0.50;;;;;;;14.93;99.41;99110.75;5053605;28;20212;-59
2023/04/30 02:02:20;;;;;;;0.50;0.50;;;;;;;14.95;99.50;99121.84;5051798;28;20197;-59
2023/04/30 02:04:47;;;;;;;0.53;0.53;;;;;;;14.95;100.00;99121.00;5051442;28;20280;-59
2023/04/30 02:07:25;;;;;;;0.90;0.90;;;;;;;14.94;100.00;99130.50;5049949;28;20220;-59
2023/04/30 02:09:52;;;;;;;0.60;0.60;;;;;;;14.86;99.72;99113.75;5051026;28;20668;-59
2023/04/30 02:12:19;;;;;;;0.60;0.60;;;;;;;14.92;99.58;99131.50;5050880;28;20198;-59
2023/04/30 02:14:45;;;;;;;0.43;0.43;;;;;;;14.91;100.00;99125.50;5051076;28;20204;-59
2023/04/30 02:17:13;;;;;;;0.50;0.50;;;;;;;14.93;100.00;99130.56;5051414;28;20203;-59
2023/04/30 02:19:40;;;;;;;0.50;0.50;;;;;;;14.94;100.00;99127.06;5051386;28;20254;-59
2023/04/30 02:22:07;;;;;;;0.50;0.50;;;;;;;14.91;100.00;99122.06;5048583;28;20211;-59
2023/04/30 02:24:33;;;;;;;0.60;0.60;;;;;;;14.90;99.78;99122.97;5050341;28;20201;-59
2023/04/30 02:27:00;;;;;;;0.60;0.60;;;;;;;14.85;100.00;99138.72;5052390;28;20206;-59
2023/04/30 02:29:27;;;;;;;0.70;0.70;;;;;;;14.82;100.00;99131.13;5048384;28;20259;-59
2023/04/30 02:31:53;;;;;;;0.40;0.40;;;;;;;14.77;100.00;99130.50;5053419;28;20197;-59
2023/04/30 02:34:22;;;;;;;0.50;0.50;;;;;;;14.78;100.00;99128.78;5049878;28;20269;-59
2023/04/30 02:36:48;;;;;;;0.60;0.60;;;;;;;14.73;100.00;99124.69;5052633;28;20200;-59
2023/04/30 02:39:17;;;;;;;0.50;0.50;;;;;;;14.77;100.00;99121.94;5051458;28;20336;-59
2023/04/30 02:41:44;;;;;;;0.50;0.50;;;;;;;14.75;100.00;99121.19;5051622;28;20300;-59
2023/04/30 02:44:11;;;;;;;0.53;0.53;;;;;;;14.69;100.00;99125.78;5051155;28;20232;-59
2023/04/30 02:46:38;;;;;;;0.40;0.40;;;;;;;14.65;100.00;99115.66;5051786;28;20201;-59
2023/04/30 02:49:05;;;;;;;0.43;0.43;;;;;;;14.64;100.00;99114.84;5051800;28;20713;-59
2023/04/30 02:51:33;;;;;;;0.50;0.50;;;;;;;14.65;100.00;99121.66;5051846;28;20258;-59
2023/04/30 02:54:00;;;;;;;0.40;0.40;;;;;;;14.60;100.00;99118.47;5051476;28;20638;-59
2023/04/30 02:56:27;;;;;;;0.50;0.50;;;;;;;14.63;100.00;99123.50;5050244;28;20637;-59
2023/04/30 02:58:54;;;;;;;0.50;0.50;;;;;;;14.65;100.00;99121.66;5052780;28;20200;-60
2023/04/30 03:01:20;;;;;;;0.43;0.43;;;;;;;14.64;100.00;99114.84;5051034;28;20254;-59
2023/04/30 03:03:47;;;;;;;0.40;0.40;;;;;;;14.62;100.00;99119.25;5046499;28;20254;-59
2023/04/30 03:06:14;;;;;;;0.70;0.70;;;;;;;14.64;100.00;99120.00;5051785;28;20671;-59
2023/04/30 03:08:42;;;;;;;0.80;0.80;;;;;;;14.64;100.00;99135.47;5050486;28;20212;-59
2023/04/30 03:11:08;;;;;;;0.53;0.53;;;;;;;14.64;100.00;99132.91;5052386;28;20630;-59
2023/04/30 03:13:35;;;;;;;0.50;0.50;;;;;;;14.63;100.00;99128.66;5051391;28;20206;-59
2023/04/30 03:16:03;;;;;;;0.30;0.30;;;;;;;14.61;100.00;99135.63;5051156;28;21186;-59
2023/04/30 03:18:33;;;;;;;0.53;0.53;;;;;;;14.63;100.00;99138.16;5047776;28;20201;-59
2023/04/30 03:21:00;;;;;;;0.47;0.47;;;;;;;14.61;100.00;99145.09;5051024;28;20256;-59
2023/04/30 03:23:28;;;;;;;0.43;0.43;;;;;;;14.54;100.00;99144.59;5048906;28;20199;-59
2023/04/30 03:25:56;;;;;;;0.60;0.60;;;;;;;14.56;100.00;99142.78;5049810;28;20254;-59
2023/04/30 03:28:23;;;;;;;0.60;0.60;;;;;;;14.53;100.00;99142.09;5049780;28;20220;-59
2023/04/30 03:30:50;;;;;;;0.57;0.57;;;;;;;14.50;100.00;99142.25;5051472;28;20202;-59
2023/04/30 03:33:17;;;;;;;0.50;0.50;;;;;;;14.31;100.00;99113.94;5049334;28;20201;-59
2023/04/30 03:35:43;;;;;;;0.50;0.50;;;;;;;14.47;100.00;99153.56;5051445;28;20201;-59
2023/04/30 03:38:10;;;;;;;0.40;0.40;;;;;;;14.45;100.00;99157.94;5049512;28;20201;-59
2023/04/30 03:40:38;;;;;;;0.40;0.40;;;;;;;14.45;100.00;99155.38;5050899;28;20603;-59
2023/04/30 03:43:06;;;;;;;0.47;0.47;;;;;;;14.45;100.00;99160.53;5049457;28;20207;-59
2023/04/30 03:45:32;;;;;;;0.50;0.50;;;;;;;14.44;100.00;99160.63;5043839;28;20257;-59
2023/04/30 03:47:59;;;;;;;0.50;0.50;;;;;;;14.42;100.00;99165.84;5050607;28;20225;-59
2023/04/30 03:50:26;;;;;;;0.50;0.50;;;;;;;14.44;100.00;99166.59;5051534;28;20196;-59
2023/04/30 03:52:52;;;;;;;0.70;0.70;;;;;;;14.47;100.00;99168.19;5049241;28;20198;-60
2023/04/30 03:55:19;;;;;;;0.40;0.40;;;;;;;14.40;100.00;99165.09;5049597;28;20743;-59
2023/04/30 03:57:46;;;;;;;0.50;0.50;;;;;;;14.45;100.00;99175.16;5044216;28;20251;-59
2023/04/30 04:00:15;;;;;;;0.50;0.50;;;;;;;14.43;100.00;99172.66;5045174;28;20665;-59
2023/04/30 04:02:42;;;;;;;0.47;0.47;;;;;;;14.45;100.00;99176.00;5048168;28;20712;-59
2023/04/30 04:05:09;;;;;;;0.53;0.53;;;;;;;14.47;100.00;99178.53;5048537;28;20589;-59
2023/04/30 04:07:36;;;;;;;0.40;0.40;;;;;;;14.48;100.00;99178.44;5050282;28;20203;-59
2023/04/30 04:10:02;;;;;;;0.40;0.40;;;;;;;14.40;100.00;99172.81;5051246;28;20671;-59
2023/04/30 04:12:29;;;;;;;0.87;0.87;;;;;;;14.45;100.00;99178.56;5050655;28;20211;-59
2023/04/30 04:14:56;;;;;;;0.50;0.50;;;;;;;14.50;100.00;99184.38;5049749;28;20631;-59
2023/04/30 04:17:24;;;;;;;0.57;0.57;;;;;;;14.52;100.00;99179.94;5047865;28;20201;-59
2023/04/30 04:19:51;;;;;;;0.50;0.50;;;;;;;14.56;100.00;99188.38;5047962;28;20553;-59
2023/04/30 04:22:17;;;;;;;0.50;0.50;;;;;;;14.58;100.00;99191.69;5048634;28;20215;-59
2023/04/30 04:24:44;;;;;;;0.50;0.50;;;;;;;14.59;100.00;99186.47;5051056;28;20699;-59
2023/04/30 04:27:11;;;;;;;0.40;0.40;;;;;;;14.60;100.00;99185.53;5051082;28;20200;-59
2023/04/30 04:29:37;;;;;;;0.60;0.60;;;;;;;14.59;100.00;99189.06;5051192;28;20644;-59
2023/04/30 04:32:04;;;;;;;0.40;0.40;;;;;;;14.57;100.00;99180.53;5050307;28;20203;-59
2023/04/30 04:34:32;;;;;;;0.60;0.60;;;;;;;14.66;100.00;99189.59;5049939;28;20745;-59
2023/04/30 04:37:00;;;;;;;0.60;0.60;;;;;;;14.63;100.00;99185.41;5049780;28;20208;-59
2023/04/30 04:39:27;;;;;;;0.40;0.40;;;;;;;14.71;100.00;99185.84;5048652;28;20204;-59
2023/04/30 04:41:54;;;;;;;0.47;0.47;;;;;;;14.76;100.00;99189.97;5049836;28;20746;-59
2023/04/30 04:44:21;;;;;;;0.80;0.80;;;;;;;14.87;100.00;99192.81;5047718;28;20210;-59
2023/04/30 04:46:48;;;;;;;0.70;0.70;;;;;;;14.97;100.00;99188.84;5049245;28;20675;-59
2023/04/30 04:49:15;;;;;;;0.60;0.60;;;;;;;15.07;100.00;99175.41;5049797;28;20251;-59
2023/04/30 04:51:43;;;;;;;0.60;0.60;;;;;;;15.42;100.00;99191.63;5049880;28;20262;-59
2023/04/30 04:54:10;;;;;;;0.50;0.50;;;;;;;15.62;96.13;99196.59;5047786;28;20205;-59
2023/04/30 04:56:37;;;;;;;0.70;0.70;;;;;;;15.93;92.03;99198.34;5046988;28;20192;-59
2023/04/30 04:59:03;;;;;;;0.53;0.53;;;;;;;16.22;90.21;99199.31;5047216;28;20193;-59
2023/04/30 05:01:30;;;;;;;0.60;0.60;;;;;;;16.61;90.86;99198.81;5046421;28;20246;-59
2023/04/30 05:03:57;;;;;;;0.70;0.70;;;;;;;16.95;85.60;99202.88;5049041;28;20228;-60
2023/04/30 05:06:23;;;;;;;0.50;0.50;;;;;;;17.22;79.55;99203.81;5049917;28;20246;-59
2023/04/30 05:08:51;;;;;;;0.60;0.60;;;;;;;17.41;77.92;99199.19;5047452;28;20271;-58
2023/04/30 05:11:18;;;;;;;0.70;0.70;;;;;;;17.72;79.42;99201.56;5047679;28;20243;-58
2023/04/30 05:13:45;;;;;;;0.50;0.50;;;;;;;17.99;74.71;99221.53;5049376;28;20250;-59
2023/04/30 05:16:15;;;;;;;0.40;0.40;;;;;;;18.17;73.17;99215.16;5050967;28;20201;-63
2023/04/30 05:18:41;;;;;;;0.40;0.40;;;;;;;18.25;71.39;99213.75;5046395;28;20583;-59
2023/04/30 05:21:10;;;;;;;0.30;0.30;;;;;;;18.35;70.56;99208.81;5050183;28;20201;-59
2023/04/30 05:23:37;;;;;;;0.60;0.60;;;;;;;18.55;69.21;99223.91;5048073;28;20201;-59
2023/04/30 05:26:05;;;;;;;0.60;0.60;;;;;;;18.69;68.38;99221.25;5047867;28;20251;-58
2023/04/30 05:28:32;;;;;;;0.40;0.40;;;;;;;18.95;68.22;99221.28;5049745;28;20222;-58
2023/04/30 05:30:59;;;;;;;1.07;0.70;;;;;;;19.19;67.11;99215.25;5040922;28;20212;-59
2023/04/30 05:33:26;;;;;;;0.40;0.40;;;;;;;19.42;68.75;99218.91;5044652;28;20197;-58
2023/04/30 05:35:52;;;;;;;0.57;0.57;;;;;;;19.64;62.33;99219.09;5048603;28;20198;-58
2023/04/30 05:38:19;;;;;;;0.40;0.40;;;;;;;19.85;60.37;99222.78;5046830;28;20248;-59
2023/04/30 05:40:46;;;;;;;0.50;0.50;;;;;;;19.91;57.84;99224.94;5047373;28;20198;-59
2023/04/30 05:43:14;;;;;;;0.60;0.60;;;;;;;19.93;58.04;99220.44;5049873;28;20611;-59
2023/04/30 05:45:41;;;;;;;0.50;0.50;;;;;;;20.02;54.64;99228.56;5049379;28;20656;-58
2023/04/30 05:48:07;;;;;;;0.40;0.40;;;;;;;20.19;57.91;99229.03;5050253;28;20276;-59
2023/04/30 05:50:34;;;;;;;0.37;0.37;;;;;;;20.33;54.68;99228.03;5049543;28;20205;-59
2023/04/30 05:53:01;;;;;;;0.50;0.50;;;;;;;20.55;56.64;99229.91;5049256;28;20264;-59
2023/04/30 05:55:27;;;;;;;0.40;0.40;;;;;;;20.80;59.11;99227.97;5048384;28;20215;-58
2023/04/30 05:57:54;;;;;;;0.40;0.40;;;;;;;20.99;57.42;99226.59;5049800;28;20261;-59
2023/04/30 06:00:22;;;;;;;0.40;0.40;;;;;;;21.12;54.46;99222.97;5044378;28;20254;-59
2023/04/30 06:02:49;;;;;;;0.40;0.40;;;;;;;21.20;59.53;99224.97;5048935;28;20584;-59
2023/04/30 06:05:16;;;;;;;0.30;0.30;;;;;;;21.25;57.51;99222.88;5048434;28;20243;-58
2023/04/30 06:07:42;;;;;;;0.30;0.30;;;;;;;21.25;57.32;99223.69;5049825;28;20203;-59
2023/04/30 06:10:11;;;;;;;0.40;0.40;;;;;;;21.10;57.36;99218.84;5048582;28;20297;-59
2023/04/30 06:12:39;;;;;;;0.40;0.40;;;;;;;21.39;60.54;99233.03;5047350;28;20200;-59
2023/04/30 06:15:07;;;;;;;0.40;0.40;;;;;;;21.55;60.48;99230.91;5044229;28;20287;-59
2023/04/30 06:17:35;;;;;;;0.50;0.50;;;;;;;21.62;55.59;99226.88;5047330;28;20261;-60
2023/04/30 06:20:05;;;;;;;0.40;0.40;;;;;;;21.72;58.79;99227.81;5048979;28;20259;-66
2023/04/30 06:22:32;;;;;;;0.70;0.70;;;;;;;21.75;57.92;99232.81;5049907;28;20695;-66
2023/04/30 06:24:59;;;;;;;0.50;0.50;;;;;;;21.83;55.04;99235.66;5046731;28;20273;-62
2023/04/30 06:27:26;;;;;;;0.40;0.40;;;;;;;21.88;55.51;99227.44;5049379;28;20197;-62
2023/04/30 06:29:53;;;;;;;0.60;0.60;;;;;;;22.02;58.93;99229.84;5051430;28;20217;-61
2023/04/30 06:32:20;;;;;;;0.80;0.80;;;;;;;22.21;58.50;99223.97;5052778;28;20208;-62
2023/04/30 06:34:49;;;;;;;0.30;0.30;;;;;;;22.39;59.45;99227.72;5049775;28;20201;-61
2023/04/30 06:37:16;;;;;;;0.60;0.60;;;;;;;22.53;55.81;99219.56;5048067;28;20659;-62
2023/04/30 06:39:42;;;;;;;0.57;0.57;;;;;;;22.72;55.89;99230.19;5051136;28;20676;-62
2023/04/30 06:42:09;;;;;;;0.50;0.50;;;;;;;22.83;55.49;99222.28;5053590;28;20208;-62
2023/04/30 06:44:36;;;;;;;0.40;0.40;;;;;;;22.94;55.19;99219.59;5048459;28;20204;-62
2023/04/30 06:47:02;;;;;;;0.40;0.40;;;;;;;22.95;54.74;99215.19;5048166;28;20208;-61
2023/04/30 06:49:29;;;;;;;0.20;0.20;;;;;;;23.05;54.08;99216.09;5051409;28;20220;-61
2023/04/30 06:51:57;;;;;;;0.40;0.40;;;;;;;23.00;58.02;99219.06;5050562;28;20262;-61
2023/04/30 06:54:26;;;;;;;0.60;0.60;;;;;;;22.81;53.67;99216.34;5047624;28;20218;-61
2023/04/30 06:56:53;;;;;;;0.40;0.40;;;;;;;22.92;56.44;99221.53;5049555;28;20284;-62
2023/04/30 06:59:20;;;;;;;0.37;0.37;;;;;;;23.14;57.08;99219.69;5051753;28;20254;-62
2023/04/30 07:01:47;;;;;;;0.50;0.50;;;;;;;23.11;56.95;99212.94;5049009;28;20197;-62
2023/04/30 07:04:13;;;;;;;0.50;0.50;;;;;;;23.31;56.21;99212.09;5052394;28;20224;-63
2023/04/30 07:06:40;;;;;;;0.40;0.40;;;;;;;23.46;52.04;99205.56;5049228;28;20286;-63
2023/04/30 07:09:08;;;;;;;0.30;0.30;;;;;;;23.57;52.19;99209.88;5047371;28;20220;-62
2023/04/30 07:11:35;;;;;;;0.37;0.37;;;;;;;23.49;53.47;99204.47;5050082;28;20255;-62
2023/04/30 07:14:02;;;;;;;0.43;0.43;;;;;;;23.60;52.79;99207.00;5051415;28;20197;-62
2023/04/30 07:16:28;;;;;;;0.83;0.83;;;;;;;23.74;52.50;99209.25;5043473;28;20241;-62
2023/04/30 07:18:55;;;;;;;0.60;0.60;;;;;;;23.57;50.09;99209.06;5049891;28;20202;-62
2023/04/30 07:21:24;;;;;;;0.40;0.40;;;;;;;23.34;52.93;99211.84;5052488;28;20686;-61
2023/04/30 07:23:51;;;;;;;0.30;0.30;;;;;;;23.53;51.19;99211.09;5047995;28;20209;-62
2023/04/30 07:26:19;;;;;;;0.40;0.40;;;;;;;23.61;55.86;99213.06;5047998;28;20200;-61
2023/04/30 07:28:47;;;;;;;0.30;0.30;;;;;;;23.73;52.35;99207.59;5051437;28;20608;-62
2023/04/30 07:31:13;;;;;;;0.40;0.40;;;;;;;23.63;51.70;99206.72;5049736;28;20266;-62
2023/04/30 07:33:41;;;;;;;0.43;0.43;;;;;;;23.32;53.23;99208.53;5046228;28;20197;-61
2023/04/30 07:36:08;;;;;;;0.37;0.30;;;;;;;23.35;53.50;99189.13;5050953;28;20219;-61
2023/04/30 07:38:35;;;;;;;0.40;0.40;;;;;;;23.52;51.29;99207.66;5050105;28;20200;-62
2023/04/30 07:41:02;;;;;;;0.40;0.40;;;;;;;23.53;53.20;99208.50;5051070;28;20224;-62
2023/04/30 07:43:30;;;;;;;0.40;0.40;;;;;;;23.73;52.17;99212.81;5052552;28;20205;-62
2023/04/30 07:45:57;;;;;;;0.47;0.47;;;;;;;23.82;49.10;99204.16;5052142;28;20291;-62
2023/04/30 07:48:23;;;;;;;0.30;0.30;;;;;;;23.85;52.22;99203.91;5050001;28;20208;-59
2023/04/30 07:50:50;;;;;;;0.67;0.67;;;;;;;23.70;53.47;99207.88;5050771;28;20278;-59
2023/04/30 07:53:17;;;;;;;0.47;0.47;;;;;;;23.77;51.09;99208.16;5051583;28;20271;-59
2023/04/30 07:55:44;;;;;;;0.40;0.40;;;;;;;23.87;49.47;99202.00;5051932;28;20197;-58
2023/04/30 07:58:11;;;;;;;0.30;0.30;;;;;;;23.94;51.30;99202.28;5051806;28;20223;-58
2023/04/30 08:00:39;;;;;;;0.30;0.30;;;;;;;24.04;49.63;99206.53;5051271;28;20274;-58
2023/04/30 08:03:05;;;;;;;0.30;0.30;;;;;;;23.93;48.58;99206.69;5051797;28;20220;-58
2023/04/30 08:05:32;;;;;;;0.40;0.40;;;;;;;23.84;50.12;99198.81;5051958;28;20285;-59
2023/04/30 08:07:59;;;;;;;0.23;0.23;;;;;;;24.10;51.01;99202.56;5048151;28;20205;-58
2023/04/30 08:10:26;;;;;;;0.40;0.40;;;;;;;24.27;49.47;99199.28;5049572;28;20229;-58
2023/04/30 08:12:53;;;;;;;0.40;0.40;;;;;;;24.50;49.43;99202.47;5051437;28;20677;-58
2023/04/30 08:15:20;;;;;;;0.30;0.30;;;;;;;24.43;47.30;99198.72;5051274;28;20275;-58
2023/04/30 08:17:49;;;;;;;0.40;0.40;;;;;;;24.54;49.35;99194.19;5045996;28;20206;-58
2023/04/30 08:20:16;;;;;;;0.30;0.30;;;;;;;24.42;46.39;99199.72;5047640;28;20214;-58
2023/04/30 08:22:43;;;;;;;0.30;0.30;;;;;;;24.63;49.55;99192.53;5049189;28;20197;-58
2023/04/30 08:25:11;;;;;;;0.40;0.40;;;;;;;24.86;44.18;99186.03;5049762;28;20227;-58
2023/04/30 08:27:38;;;;;;;0.40;0.40;;;;;;;24.93;45.88;99195.00;5047180;28;20232;-58
2023/04/30 08:30:05;;;;;;;0.60;0.60;;;;;;;24.98;43.71;99189.31;5044321;28;20313;-58
2023/04/30 08:32:34;;;;;;;0.50;0.40;;;;;;;24.87;46.52;99171.13;5041565;28;20213;-58
2023/04/30 08:35:03;;;;;;;0.30;0.30;;;;;;;24.95;42.44;99189.59;5046072;28;20201;-59
2023/04/30 08:37:29;;;;;;;0.43;0.43;;;;;;;25.12;41.62;99183.59;5047604;28;20208;-60
2023/04/30 08:39:56;;;;;;;0.30;0.30;;;;;;;25.11;45.17;99178.50;5047259;28;20234;-58
2023/04/30 08:42:25;;;;;;;0.33;0.33;;;;;;;25.11;48.37;99174.06;5048472;28;20291;-59
2023/04/30 08:44:52;;;;;;;0.80;0.80;;;;;;;25.22;43.68;99173.06;5040659;28;20205;-58
2023/04/30 08:47:20;;;;;;;0.30;0.30;;;;;;;25.27;43.76;99176.09;5047591;28;20250;-58
2023/04/30 08:49:47;;;;;;;0.20;0.20;;;;;;;25.24;42.43;99176.38;5046031;28;20282;-58
2023/04/30 08:52:15;;;;;;;0.33;0.33;;;;;;;24.94;42.12;99172.22;5046216;28;20200;-58
2023/04/30 08:54:44;;;;;;;0.23;0.23;;;;;;;25.04;42.66;99167.78;5043490;28;20212;-61
2023/04/30 08:57:10;;;;;;;0.30;0.30;;;;;;;25.08;44.41;99163.88;5044011;28;21603;-59
2023/04/30 08:59:37;;;;;;;0.40;0.40;;;;;;;25.20;40.81;99160.13;5040800;28;20234;-60
2023/04/30 09:02:04;;;;;;;0.30;0.30;;;;;;;25.40;42.09;99166.09;5046038;28;20211;-60
2023/04/30 09:04:31;;;;;;;0.30;0.30;;;;;;;25.51;43.46;99168.56;5043776;28;20237;-59
2023/04/30 09:06:58;;;;;;;0.30;0.30;;;;;;;25.52;39.32;99160.56;5049139;28;20196;-59
2023/04/30 09:09:30;;;;;;;0.30;0.30;;;;;;;25.77;40.45;99166.88;5044912;28;20223;-59
2023/04/30 09:12:13;;;;;;;0.30;0.30;;;;;;;25.89;37.36;99168.31;5046180;28;20258;-60
2023/04/30 09:14:40;;;;;;;0.20;0.20;;;;;;;25.65;34.54;99165.44;5049499;28;20211;-59
2023/04/30 09:17:08;;;;;;;0.50;0.50;;;;;;;25.60;35.41;99157.16;5042548;28;20274;-59
2023/04/30 09:19:35;;;;;;;0.30;0.30;;;;;;;25.84;37.57;99160.06;5042978;28;20197;-59
2023/04/30 09:22:20;;;;;;;0.50;0.50;;;;;;;25.94;37.96;99158.22;5044837;28;20294;-59
2023/04/30 09:24:49;;;;;;;0.30;0.30;;;;;;;25.72;38.36;99155.19;5043741;28;20748;-59
2023/04/30 09:27:17;;;;;;;0.30;0.30;;;;;;;25.72;38.84;99155.97;5048519;28;20205;-58
2023/04/30 09:29:45;;;;;;;0.40;0.40;;;;;;;25.38;39.58;99147.03;5043499;28;20654;-59
2023/04/30 09:32:11;;;;;;;0.40;0.40;;;;;;;25.23;39.46;99145.88;5048168;28;20204;-58
2023/04/30 09:34:38;;;;;;;0.40;0.40;;;;;;;24.92;40.00;99134.81;5047948;28;20704;-59
2023/04/30 09:37:06;;;;;;;0.40;0.40;;;;;;;24.45;41.09;99128.69;5047973;28;20200;-59
2023/04/30 09:39:33;;;;;;;0.40;0.40;;;;;;;24.40;39.88;99130.88;5047626;28;20204;-60
2023/04/30 09:42:11;;;;;;;0.40;0.40;;;;;;;24.37;40.59;99129.38;5043626;28;20257;-59
2023/04/30 09:44:39;;;;;;;0.30;0.30;;;;;;;24.40;41.52;99123.03;5046720;28;20196;-59
2023/04/30 09:47:11;;;;;;;0.30;0.30;;;;;;;24.50;41.08;99129.06;5044020;28;20738;-59
2023/04/30 09:49:38;;;;;;;0.30;0.30;;;;;;;24.30;37.76;99122.22;5046790;28;20221;-59
2023/04/30 09:52:06;;;;;;;0.40;0.40;;;;;;;24.47;42.82;99118.88;5045457;28;20257;-59
2023/04/30 09:54:32;;;;;;;0.30;0.30;;;;;;;24.66;41.14;99113.59;5048253;28;20200;-59
2023/04/30 09:57:02;;;;;;;0.30;0.30;;;;;;;24.72;41.15;99109.59;5048814;28;20196;-59
2023/04/30 09:59:31;;;;;;;0.40;0.40;;;;;;;24.74;41.28;99105.88;5048672;28;20300;-59
2023/04/30 10:02:00;;;;;;;0.40;0.40;;;;;;;24.66;42.02;99108.34;5043568;28;20197;-59
2023/04/30 10:04:28;;;;;;;0.30;0.30;;;;;;;24.62;40.30;99114.84;5047671;28;20607;-59
2023/04/30 10:06:58;;;;;;;0.33;0.33;;;;;;;24.57;40.85;99114.44;5048863;28;20209;-61
2023/04/30 10:09:26;;;;;;;0.30;0.30;;;;;;;24.51;41.64;99109.78;5050654;28;20596;-62
2023/04/30 10:11:54;;;;;;;0.27;0.27;;;;;;;24.56;40.14;99112.78;5048376;28;20734;-62
2023/04/30 10:14:22;;;;;;;0.43;0.43;;;;;;;24.68;42.19;99098.56;5048813;28;20258;-62
2023/04/30 10:16:54;;;;;;;0.50;0.50;;;;;;;24.59;39.80;99109.09;5052052;28;20349;-62
2023/04/30 10:19:24;;;;;;;0.60;0.60;;;;;;;24.66;39.72;99097.88;5052364;28;20254;-62
2023/04/30 10:21:51;;;;;;;0.33;0.33;;;;;;;24.51;43.18;99100.13;5048558;28;20209;-62
2023/04/30 10:24:20;;;;;;;0.30;0.30;;;;;;;24.35;39.60;99099.88;5048346;28;20205;-61
2023/04/30 10:26:48;;;;;;;0.30;0.30;;;;;;;24.38;43.17;99099.59;5049682;28;20730;-62
2023/04/30 10:29:15;;;;;;;0.47;0.47;;;;;;;24.39;42.02;99103.06;5050580;28;20239;-61
2023/04/30 10:31:45;;;;;;;0.30;0.30;;;;;;;24.23;44.25;99105.41;5052248;28;20600;-62
2023/04/30 10:34:21;;;;;;;0.30;0.30;;;;;;;24.34;42.56;99092.97;5046819;28;20201;-62
2023/04/30 10:36:51;;;;;;;0.40;0.40;;;;;;;24.41;38.61;99094.06;5049099;28;20258;-61
2023/04/30 10:39:20;;;;;;;0.30;0.30;;;;;;;24.49;41.29;99090.75;5049005;28;20211;-62
2023/04/30 10:41:47;;;;;;;0.60;0.60;;;;;;;24.54;39.79;99083.28;5047057;28;20207;-62
2023/04/30 10:44:15;;;;;;;0.30;0.30;;;;;;;24.45;40.16;99086.75;5051179;28;20262;-62
2023/04/30 10:46:42;;;;;;;0.43;0.43;;;;;;;24.53;41.04;99086.88;5050810;28;20205;-62
2023/04/30 10:49:09;;;;;;;0.40;0.40;;;;;;;24.56;42.48;99082.16;5050567;28;20258;-61
2023/04/30 10:51:47;;;;;;;0.30;0.30;;;;;;;24.52;42.58;99082.63;5051231;28;20220;-62
2023/04/30 10:54:17;;;;;;;0.50;0.50;;;;;;;24.33;42.86;99080.03;5049021;28;20270;-62
2023/04/30 10:56:46;;;;;;;5.10;0.80;;;;;;;24.26;43.09;99081.56;5047985;28;20300;-61
2023/04/30 10:59:13;;;;;;;0.40;0.40;;;;;;;24.18;42.83;99081.41;5051785;28;20671;-61
2023/04/30 11:01:56;;;;;;;0.40;0.40;;;;;;;24.10;41.37;99060.31;5050215;28;20201;-62
2023/04/30 11:04:23;;;;;;;0.33;0.33;;;;;;;24.23;41.10;99072.19;5050096;28;20612;-61
2023/04/30 11:07:00;;;;;;;0.40;0.40;;;;;;;24.27;42.05;99075.31;5048220;28;20212;-62
2023/04/30 11:09:39;;;;;;;0.20;0.20;;;;;;;24.36;41.28;99075.31;5051050;28;20239;-62
2023/04/30 11:12:12;;;;;;;0.40;0.40;;;;;;;24.42;39.16;99073.94;5049047;28;20200;-62
2023/04/30 11:14:41;;;;;;;0.40;0.40;;;;;;;24.48;39.11;99065.50;5047733;28;20676;-62
2023/04/30 11:17:10;;;;;;;0.37;0.37;;;;;;;24.45;39.30;99060.56;5047269;28;20579;-62
2023/04/30 11:19:46;;;;;;;0.40;0.40;;;;;;;24.53;40.44;99060.66;5051021;28;20197;-62
2023/04/30 11:22:18;;;;;;;0.40;0.40;;;;;;;24.65;40.58;99063.94;5048618;28;20197;-62
2023/04/30 11:25:03;;;;;;;0.40;0.40;;;;;;;24.32;38.77;99058.25;5050036;28;20684;-62
2023/04/30 11:27:31;;;;;;;0.30;0.30;;;;;;;24.16;41.04;99051.94;5050899;28;20284;-61
2023/04/30 11:29:58;;;;;;;0.30;0.30;;;;;;;24.31;43.96;99050.50;5047970;28;20200;-61
2023/04/30 11:32:27;;;;;;;0.37;0.37;;;;;;;24.51;43.47;99039.00;5049517;28;20197;-61
2023/04/30 11:34:54;;;;;;;0.20;0.20;;;;;;;24.78;40.55;99044.28;5050661;28;20255;-61
2023/04/30 11:37:31;;;;;;;0.40;0.40;;;;;;;24.88;38.88;99044.31;5046655;28;20665;-62